Time;durP1;ratioP1;P1;durP2;ratioP2;P2;SDS_P1;SDS_P2;PMS_P1;PMS_P2;Temp;Humidity;BMP_temperature;BMP_pressure;BME280_temperature;BME280_humidity;BME280_pressure;Samples;Min_cycle;Max_cycle;Signal;HPM_P1;HPM_P2
2022/04/14 00:01:24;;;;;;;20.08;12.52;;;11.10;99.90;;;;;;5016837;28;20056;-88
2022/04/14 00:03:50;;;;;;;19.33;12.57;;;11.10;99.90;;;;;;5013693;28;20041;-87
2022/04/14 00:06:16;;;;;;;20.95;12.82;;;11.40;99.90;;;;;;5017087;28;20091;-88
2022/04/14 00:08:42;;;;;;;23.25;12.93;;;11.10;99.90;;;;;;5017240;28;20049;-87
2022/04/14 00:11:07;;;;;;;22.13;12.98;;;11.10;99.90;;;;;;5015689;28;20475;-83
2022/04/14 00:13:33;;;;;;;20.75;13.60;;;11.00;99.90;;;;;;5024608;28;20116;-83
2022/04/14 00:15:59;;;;;;;21.35;13.43;;;11.60;99.90;;;;;;5015417;28;20034;-83
2022/04/14 00:18:24;;;;;;;24.92;14.82;;;11.30;99.90;;;;;;5014313;28;20611;-83
2022/04/14 00:20:50;;;;;;;21.95;13.82;;;11.40;99.90;;;;;;5006221;28;20038;-83
2022/04/14 00:23:16;;;;;;;25.17;15.05;;;10.90;99.90;;;;;;5010326;28;20045;-83
2022/04/14 00:25:42;;;;;;;23.25;14.90;;;10.90;99.90;;;;;;4995143;28;20045;-83
2022/04/14 00:28:07;;;;;;;23.92;14.98;;;10.80;99.90;;;;;;5029602;28;20498;-83
2022/04/14 00:30:33;;;;;;;22.60;14.45;;;10.80;99.90;;;;;;5026290;28;20041;-83
2022/04/14 00:32:59;;;;;;;25.33;14.55;;;10.70;99.90;;;;;;5006934;28;20110;-83
2022/04/14 00:35:25;;;;;;;23.45;15.00;;;10.70;99.90;;;;;;5030754;28;20041;-83
2022/04/14 00:37:50;;;;;;;22.92;14.23;;;10.60;99.90;;;;;;5009154;28;20045;-83
2022/04/14 00:40:16;;;;;;;22.92;14.27;;;10.60;99.90;;;;;;5015278;28;20052;-83
2022/04/14 00:42:41;;;;;;;25.90;15.48;;;10.50;99.90;;;;;;5032559;28;20128;-83
2022/04/14 00:45:09;;;;;;;26.60;15.20;;;10.50;99.90;;;;;;5031396;28;20030;-83
2022/04/14 00:47:36;;;;;;;23.85;14.40;;;10.40;99.90;;;;;;5025126;28;20046;-83
2022/04/14 00:50:03;;;;;;;25.58;15.52;;;10.30;99.90;;;;;;5031579;28;20033;-83
2022/04/14 00:52:28;;;;;;;23.35;14.25;;;10.30;99.90;;;;;;5004212;28;20034;-83
2022/04/14 00:54:54;;;;;;;25.75;15.88;;;10.20;99.90;;;;;;5016181;28;20045;-83
2022/04/14 00:57:20;;;;;;;23.98;15.02;;;10.20;99.90;;;;;;5014510;28;20124;-83
2022/04/14 00:59:46;;;;;;;23.02;15.68;;;10.10;99.90;;;;;;5007690;28;20051;-86
2022/04/14 01:02:11;;;;;;;24.83;15.63;;;10.00;99.90;;;;;;5030459;28;20124;-86
2022/04/14 01:04:39;;;;;;;26.02;15.35;;;10.00;99.90;;;;;;5008904;28;20044;-83
2022/04/14 01:07:08;;;;;;;33.67;16.73;;;10.20;99.90;;;;;;5026624;28;20044;-83
2022/04/14 01:09:36;;;;;;;23.98;15.38;;;9.90;99.90;;;;;;5014016;28;20068;-83
2022/04/14 01:12:05;;;;;;;27.42;16.40;;;9.90;99.90;;;;;;5015395;28;20103;-83
2022/04/14 01:14:33;;;;;;;22.15;15.77;;;9.80;99.90;;;;;;5032141;28;20402;-82
2022/04/14 01:17:04;;;;;;;28.42;16.45;;;9.70;99.90;;;;;;5036310;28;20042;-83
2022/04/14 01:19:30;;;;;;;26.70;16.30;;;9.70;99.90;;;;;;5029300;28;20041;-83
2022/04/14 01:22:06;;;;;;;26.70;16.58;;;10.00;99.90;;;;;;5026115;28;20513;-83
2022/04/14 01:24:32;;;;;;;28.58;17.42;;;9.70;99.90;;;;;;5031375;28;20080;-82
2022/04/14 01:27:00;;;;;;;26.27;16.75;;;9.60;99.90;;;;;;5021538;28;20064;-83
2022/04/14 01:29:26;;;;;;;31.48;17.65;;;9.60;99.90;;;;;;5015136;28;20037;-83
2022/04/14 01:31:54;;;;;;;28.77;17.17;;;9.90;99.90;;;;;;5031414;28;20038;-82
2022/04/14 01:34:19;;;;;;;28.25;17.52;;;9.50;99.90;;;;;;5013478;28;20057;-83
2022/04/14 01:36:46;;;;;;;30.08;17.52;;;9.80;99.90;;;;;;5031529;28;20426;-82
2022/04/14 01:39:13;;;;;;;33.90;19.70;;;9.50;99.90;;;;;;4995072;28;20045;-83
2022/04/14 01:41:40;;;;;;;31.20;18.30;;;9.50;99.90;;;;;;5028161;28;20060;-83
2022/04/14 01:44:06;;;;;;;32.42;19.05;;;9.40;99.90;;;;;;5011407;28;20391;-83
2022/04/14 01:46:32;;;;;;;30.80;18.98;;;9.40;99.90;;;;;;5033215;28;20123;-83
2022/04/14 01:49:00;;;;;;;32.88;19.38;;;9.30;99.90;;;;;;5014406;28;20120;-87
2022/04/14 01:51:27;;;;;;;33.70;19.60;;;9.30;99.90;;;;;;5030535;28;20042;-87
2022/04/14 01:53:53;;;;;;;30.85;20.38;;;9.20;99.90;;;;;;5025698;28;20042;-87
2022/04/14 01:56:19;;;;;;;38.75;20.80;;;9.60;99.90;;;;;;5013132;28;20042;-87
2022/04/14 01:58:45;;;;;;;30.58;18.00;;;9.20;99.90;;;;;;5031640;28;20046;-87
2022/04/14 02:01:11;;;;;;;36.72;19.58;;;9.10;99.90;;;;;;5031782;28;20041;-87
2022/04/14 02:03:37;;;;;;;32.17;20.48;;;9.10;99.90;;;;;;4996036;28;20451;-87
2022/04/14 02:06:03;;;;;;;34.75;21.15;;;9.10;99.90;;;;;;5019376;28;20037;-82
2022/04/14 02:08:29;;;;;;;33.78;20.92;;;9.10;99.90;;;;;;5016494;28;20121;-83
2022/04/14 02:10:55;;;;;;;36.92;20.58;;;9.10;99.90;;;;;;5020815;28;20034;-83
2022/04/14 02:13:20;;;;;;;37.95;22.17;;;9.10;99.90;;;;;;5026379;28;20091;-83
2022/04/14 02:15:46;;;;;;;38.03;21.98;;;9.10;99.90;;;;;;5014621;28;20052;-82
2022/04/14 02:18:12;;;;;;;36.00;22.77;;;;;;;;;;5010869;28;20041;-82
2022/04/14 02:20:38;;;;;;;31.70;20.85;;;;;;;;;;5024651;28;20046;-82
2022/04/14 02:23:04;;;;;;;37.50;22.73;;;;;;;;;;5017263;28;20034;-87
2022/04/14 02:25:30;;;;;;;32.97;22.10;;;;;;;;;;4981513;28;20061;-83
2022/04/14 02:27:56;;;;;;;29.63;20.52;;;9.00;99.90;;;;;;5023010;28;20045;-83
2022/04/14 02:30:22;;;;;;;38.95;23.77;;;8.80;99.90;;;;;;5014312;28;20041;-83
2022/04/14 02:32:48;;;;;;;37.50;22.35;;;8.80;99.90;;;;;;5014767;28;20037;-83
2022/04/14 02:35:14;;;;;;;35.83;22.98;;;8.80;99.90;;;;;;5010263;28;20061;-83
2022/04/14 02:37:40;;;;;;;39.25;23.88;;;8.70;99.90;;;;;;5014037;28;20042;-83
2022/04/14 02:40:06;;;;;;;36.90;22.77;;;8.60;99.90;;;;;;5034034;28;20415;-87
2022/04/14 02:42:32;;;;;;;41.67;25.13;;;8.60;99.90;;;;;;5019151;28;20049;-87
2022/04/14 02:44:58;;;;;;;39.90;25.30;;;8.60;99.90;;;;;;5018925;28;20045;-87
2022/04/14 02:47:24;;;;;;;43.25;25.73;;;8.50;99.90;;;;;;5035469;28;20387;-87
2022/04/14 02:49:49;;;;;;;42.92;24.98;;;8.80;99.90;;;;;;5002717;28;20403;-87
2022/04/14 02:52:15;;;;;;;44.78;26.92;;;8.40;99.90;;;;;;5033554;28;20064;-82
2022/04/14 02:54:41;;;;;;;45.50;26.77;;;8.50;99.90;;;;;;5027169;28;20048;-82
2022/04/14 02:57:08;;;;;;;42.70;25.58;;;8.40;99.90;;;;;;5033701;28;20042;-82
2022/04/14 02:59:34;;;;;;;40.50;25.80;;;8.40;99.90;;;;;;5012363;28;20454;-82
2022/04/14 03:02:00;;;;;;;48.58;27.50;;;8.30;99.90;;;;;;5030566;28;20073;-82
2022/04/14 03:04:29;;;;;;;40.90;26.05;;;8.30;99.90;;;;;;5030829;28;20064;-82
2022/04/14 03:06:55;;;;;;;49.33;28.60;;;8.20;99.90;;;;;;5017452;28;20079;-83
2022/04/14 03:09:21;;;;;;;44.50;26.50;;;8.40;99.90;;;;;;5025854;28;20093;-82
2022/04/14 03:11:47;;;;;;;45.70;28.33;;;8.20;99.90;;;;;;5006878;28;20088;-85
2022/04/14 03:14:13;;;;;;;42.63;27.52;;;8.20;99.90;;;;;;5010533;28;20037;-86
2022/04/14 03:16:38;;;;;;;40.75;25.75;;;8.90;99.90;;;;;;5016752;28;20137;-86
2022/04/14 03:19:04;;;;;;;49.92;28.42;;;8.10;99.90;;;;;;5038863;28;20046;-86
2022/04/14 03:21:30;;;;;;;49.72;28.83;;;8.10;99.90;;;;;;5034596;28;20087;-86
2022/04/14 03:23:56;;;;;;;47.63;26.83;;;8.00;99.90;;;;;;5016903;28;20060;-86
2022/04/14 03:26:21;;;;;;;56.53;31.42;;;8.00;99.90;;;;;;5026744;28;20045;-86
2022/04/14 03:28:47;;;;;;;52.65;29.83;;;8.00;99.90;;;;;;5022278;28;20071;-86
2022/04/14 03:31:13;;;;;;;47.45;28.23;;;7.90;99.90;;;;;;5015291;28;20106;-86
2022/04/14 03:33:38;;;;;;;54.15;30.02;;;7.80;99.90;;;;;;5019409;28;20126;-86
2022/04/14 03:36:04;;;;;;;45.47;27.80;;;7.80;99.90;;;;;;5034962;28;20056;-85
2022/04/14 03:38:31;;;;;;;46.55;29.10;;;7.70;99.90;;;;;;5017091;28;20479;-85
2022/04/14 03:40:57;;;;;;;43.97;28.83;;;7.60;99.90;;;;;;5033694;28;20042;-85
2022/04/14 03:43:23;;;;;;;44.22;26.73;;;7.60;99.90;;;;;;4999962;28;20038;-85
2022/04/14 03:45:48;;;;;;;48.67;29.45;;;7.50;99.90;;;;;;5032546;28;20056;-83
2022/04/14 03:48:14;;;;;;;49.92;30.30;;;7.90;99.90;;;;;;5014765;28;20464;-82
2022/04/14 03:50:40;;;;;;;61.13;32.05;;;7.50;99.90;;;;;;5017153;28;20037;-82
2022/04/14 03:53:06;;;;;;;50.45;29.77;;;7.50;99.90;;;;;;5017217;28;20390;-82
2022/04/14 03:55:31;;;;;;;46.17;27.85;;;7.50;99.90;;;;;;5000585;28;20128;-82
2022/04/14 03:57:57;;;;;;;60.70;31.52;;;7.60;99.90;;;;;;5017367;28;20127;-82
2022/04/14 04:00:23;;;;;;;47.75;30.73;;;8.10;99.90;;;;;;5033496;28;20037;-82
2022/04/14 04:02:48;;;;;;;61.85;33.25;;;7.30;99.90;;;;;;5033492;28;20076;-82
2022/04/14 04:05:14;;;;;;;52.97;33.00;;;7.30;99.90;;;;;;5016980;28;20037;-82
2022/04/14 04:07:40;;;;;;;55.05;32.67;;;7.40;99.90;;;;;;5016912;28;20060;-83
2022/04/14 04:10:06;;;;;;;50.78;30.13;;;7.60;99.90;;;;;;5017033;28;20328;-82
2022/04/14 04:12:32;;;;;;;63.35;35.67;;;7.30;99.90;;;;;;5033155;28;20038;-82
2022/04/14 04:14:58;;;;;;;60.85;33.00;;;7.30;99.90;;;;;;5015322;28;20442;-82
2022/04/14 04:17:24;;;;;;;54.15;31.02;;;6.70;99.90;;;;;;5017188;28;20056;-82
2022/04/14 04:19:50;;;;;;;53.92;30.00;;;7.20;99.90;;;;;;5017176;28;20396;-85
2022/04/14 04:22:15;;;;;;;69.15;36.13;;;7.20;99.90;;;;;;5016542;28;20038;-85
2022/04/14 04:24:44;;;;;;;62.85;35.97;;;7.20;99.90;;;;;;5015301;28;20037;-86
2022/04/14 04:27:09;;;;;;;57.63;34.10;;;7.20;99.90;;;;;;5016973;28;20059;-85
2022/04/14 04:29:35;;;;;;;66.90;35.80;;;7.20;99.90;;;;;;5002892;28;20483;-85
2022/04/14 04:32:01;;;;;;;54.40;32.45;;;7.20;99.90;;;;;;5011896;28;20041;-85
2022/04/14 04:34:27;;;;;;;58.35;32.08;;;8.00;99.90;;;;;;5011351;22;20080;-83
2022/04/14 04:36:53;;;;;;;68.18;35.55;;;7.10;99.90;;;;;;4995010;28;20057;-86
2022/04/14 04:39:18;;;;;;;56.25;31.88;;;7.10;99.90;;;;;;5006767;28;20037;-85
2022/04/14 04:41:44;;;;;;;67.10;36.20;;;7.10;99.90;;;;;;4996603;28;20033;-86
2022/04/14 04:44:10;;;;;;;71.97;36.60;;;7.10;99.90;;;;;;5017841;28;20038;-86
2022/04/14 04:46:35;;;;;;;59.35;33.75;;;7.10;99.90;;;;;;4998050;28;20044;-86
2022/04/14 04:49:02;;;;;;;64.20;36.45;;;7.10;99.90;;;;;;4968129;28;20034;-85
2022/04/14 04:51:28;;;;;;;78.00;33.00;;;7.10;99.90;;;;;;5001934;28;20081;-83
2022/04/14 04:53:54;;;;;;;63.72;35.42;;;7.50;99.90;;;;;;5004262;28;20372;-83
2022/04/14 04:56:19;;;;;;;67.40;35.80;;;7.00;99.90;;;;;;4984822;28;20033;-83
2022/04/14 04:58:46;;;;;;;61.50;33.78;;;6.90;99.90;;;;;;5001496;28;20052;-83
2022/04/14 05:01:12;;;;;;;67.07;36.70;;;7.00;99.90;;;;;;4983411;28;20559;-82
2022/04/14 05:03:38;;;;;;;63.67;35.28;;;7.10;99.90;;;;;;4970164;28;20117;-82
2022/04/14 05:06:04;;;;;;;82.35;39.85;;;7.00;99.90;;;;;;4978783;28;20100;-83
2022/04/14 05:08:32;;;;;;;83.03;43.45;;;7.00;99.90;;;;;;5007202;28;20111;-83
2022/04/14 05:10:58;;;;;;;80.22;41.33;;;7.70;99.90;;;;;;5001966;28;20483;-83
2022/04/14 05:13:24;;;;;;;71.28;39.60;;;7.20;99.90;;;;;;4986816;28;20051;-83
2022/04/14 05:15:49;;;;;;;92.28;44.00;;;7.30;99.90;;;;;;4980425;28;20034;-83
2022/04/14 05:18:15;;;;;;;81.07;43.55;;;7.40;99.90;;;;;;4998548;28;20076;-84
2022/04/14 05:20:42;;;;;;;89.18;45.00;;;7.60;99.90;;;;;;4995688;28;20520;-84
2022/04/14 05:23:11;;;;;;;84.28;45.00;;;7.60;99.90;;;;;;4995191;28;20543;-83
2022/04/14 05:25:40;;;;;;;85.10;44.33;;;8.00;99.90;;;;;;4995844;28;20117;-87
2022/04/14 05:28:06;;;;;;;75.53;43.67;;;8.00;99.90;;;;;;5008857;28;20080;-87
2022/04/14 05:30:32;;;;;;;80.45;44.50;;;8.10;99.90;;;;;;4993002;28;20435;-88
2022/04/14 05:32:58;;;;;;;82.10;41.97;;;8.20;99.90;;;;;;4977414;28;20181;-86
2022/04/14 05:35:23;;;;;;;80.45;44.25;;;8.30;99.90;;;;;;4989099;28;20046;-87
2022/04/14 05:37:49;;;;;;;88.65;46.22;;;8.40;99.90;;;;;;4987769;28;20034;-87
2022/04/14 05:40:15;;;;;;;80.40;41.67;;;8.50;99.90;;;;;;4978634;28;20054;-86
2022/04/14 05:42:46;;;;;;;80.93;41.88;;;8.50;99.90;;;;;;5011069;28;20049;-83
2022/04/14 05:45:13;;;;;;;64.63;38.72;;;8.60;99.90;;;;;;4992643;28;20042;-84
2022/04/14 05:47:39;;;;;;;69.78;39.60;;;9.50;99.90;;;;;;4978796;28;20049;-84
2022/04/14 05:50:05;;;;;;;71.55;39.55;;;8.70;99.90;;;;;;4995211;28;20045;-84
2022/04/14 05:52:31;;;;;;;70.53;38.00;;;8.90;99.90;;;;;;4998441;28;20042;-84
2022/04/14 05:55:01;;;;;;;60.83;36.40;;;9.10;99.90;;;;;;4999767;28;20065;-83
2022/04/14 05:57:28;;;;;;;57.50;35.22;;;9.30;99.90;;;;;;5000761;28;20478;-83
2022/04/14 05:59:53;;;;;;;55.88;32.97;;;9.50;99.90;;;;;;4981549;28;20042;-84
2022/04/14 06:02:19;;;;;;;53.65;33.33;;;9.70;99.90;;;;;;4979571;28;20050;-83
2022/04/14 06:04:45;;;;;;;49.00;31.30;;;9.90;99.90;;;;;;4998098;28;20038;-83
2022/04/14 06:07:11;;;;;;;48.15;30.38;;;10.20;99.90;;;;;;4997159;28;20042;-84
2022/04/14 06:09:36;;;;;;;42.70;29.60;;;10.30;99.90;;;;;;4992340;28;20085;-83
2022/04/14 06:12:06;;;;;;;44.25;29.45;;;10.50;99.90;;;;;;4994194;28;20058;-83
2022/04/14 06:14:33;;;;;;;42.47;27.60;;;10.60;99.90;;;;;;5002226;28;20054;-83
2022/04/14 06:16:59;;;;;;;37.58;25.83;;;10.80;99.90;;;;;;4996364;28;20046;-86
2022/04/14 06:19:25;;;;;;;35.97;26.08;;;10.90;99.90;;;;;;4996059;28;20042;-86
2022/04/14 06:21:51;;;;;;;40.25;27.02;;;11.20;99.90;;;;;;4986112;28;20080;-86
2022/04/14 06:24:17;;;;;;;34.63;24.08;;;11.60;99.90;;;;;;5011416;28;20034;-85
2022/04/14 06:26:43;;;;;;;32.40;23.70;;;12.10;99.90;;;;;;4993965;28;20049;-86
2022/04/14 06:29:09;;;;;;;32.00;22.15;;;12.60;99.90;;;;;;4979548;28;20038;-86
2022/04/14 06:31:35;;;;;;;28.15;21.10;;;13.10;99.90;;;;;;5002541;28;20042;-86
2022/04/14 06:34:02;;;;;;;25.10;18.85;;;13.60;99.90;;;;;;4946909;28;20526;-86
2022/04/14 06:36:28;;;;;;;30.08;19.65;;;14.20;99.90;;;;;;4995152;28;20088;-86
2022/04/14 06:38:54;;;;;;;26.10;18.98;;;14.60;99.90;;;;;;4993670;28;20027;-86
2022/04/14 06:41:20;;;;;;;25.67;18.95;;;15.10;99.90;;;;;;5014030;28;20122;-86
2022/04/14 06:43:49;;;;;;;26.30;19.23;;;15.30;99.90;;;;;;5010572;28;20069;-86
2022/04/14 06:46:15;;;;;;;24.33;17.70;;;15.10;99.90;;;;;;4994700;28;20043;-86
2022/04/14 06:48:42;;;;;;;23.30;18.45;;;15.20;99.90;;;;;;4994851;28;20456;-83
2022/04/14 06:51:07;;;;;;;23.90;18.27;;;15.70;99.90;;;;;;4992718;28;20045;-83
2022/04/14 06:53:33;;;;;;;23.25;17.58;;;15.70;99.90;;;;;;4993579;28;20034;-83
2022/04/14 06:55:59;;;;;;;18.42;15.80;;;15.60;99.90;;;;;;4995471;28;20149;-83
2022/04/14 06:58:25;;;;;;;22.55;17.60;;;16.10;99.90;;;;;;4981225;28;20045;-83
2022/04/14 07:00:50;;;;;;;21.55;16.23;;;16.50;99.90;;;;;;4967319;28;20057;-83
2022/04/14 07:03:16;;;;;;;22.23;17.33;;;16.70;99.90;;;;;;4994718;28;20050;-84
2022/04/14 07:05:42;;;;;;;23.67;16.85;;;16.60;99.90;;;;;;4992114;28;20038;-87
2022/04/14 07:08:07;;;;;;;21.73;16.20;;;17.20;99.90;;;;;;5009546;28;20053;-87
2022/04/14 07:10:33;;;;;;;20.30;15.80;;;17.50;99.90;;;;;;5001820;28;20037;-87
2022/04/14 07:12:59;;;;;;;20.25;14.30;;;18.00;99.90;;;;;;4979444;28;20092;-87
2022/04/14 07:15:25;;;;;;;19.77;15.48;;;18.20;99.90;;;;;;4997160;28;20042;-87
2022/04/14 07:17:50;;;;;;;19.67;15.18;;;18.00;99.90;;;;;;4994232;28;20053;-88
2022/04/14 07:20:16;;;;;;;21.13;15.40;;;17.70;99.90;;;;;;4994336;28;20046;-87
2022/04/14 07:22:52;;;;;;;18.95;15.13;;;18.30;99.90;;;;;;4998057;28;20038;-88
2022/04/14 07:25:18;;;;;;;21.58;15.15;;;18.30;99.90;;;;;;4994868;28;20503;-88
2022/04/14 07:27:44;;;;;;;23.15;14.93;;;18.30;99.90;;;;;;4994290;28;20038;-88
2022/04/14 07:30:11;;;;;;;18.25;14.52;;;18.50;99.90;;;;;;4994485;28;20049;-88
2022/04/14 07:32:45;;;;;;;23.83;15.65;;;18.10;99.90;;;;;;4995746;28;20046;-88
2022/04/14 07:35:12;;;;;;;20.73;14.30;;;17.60;99.90;;;;;;4973509;28;20084;-88
2022/04/14 07:37:38;;;;;;;17.35;13.00;;;18.10;99.90;;;;;;4988599;28;20121;-88
2022/04/14 07:40:11;;;;;;;17.95;12.82;;;18.10;99.90;;;;;;4996964;28;20125;-84
2022/04/14 07:42:42;;;;;;;14.88;12.13;;;19.00;99.90;;;;;;4995966;28;20084;-84
2022/04/14 07:45:09;;;;;;;15.18;12.75;;;19.70;99.90;;;;;;4994210;28;20038;-84
2022/04/14 07:47:35;;;;;;;18.00;12.85;;;20.50;99.90;;;;;;4993165;28;20504;-84
2022/04/14 07:50:01;;;;;;;15.52;12.38;;;21.00;99.80;;;;;;5010422;28;20451;-84
2022/04/14 07:52:27;;;;;;;14.80;12.43;;;20.90;99.90;;;;;;5009089;28;20137;-84
2022/04/14 07:54:52;;;;;;;16.58;13.27;;;21.30;99.90;;;;;;4979628;28;20038;-86
2022/04/14 07:57:18;;;;;;;15.00;12.40;;;20.40;99.90;;;;;;4995472;28;20042;-86
2022/04/14 07:59:44;;;;;;;16.23;12.13;;;21.30;99.90;;;;;;4996883;28;20038;-86
2022/04/14 08:02:10;;;;;;;13.88;11.50;;;20.50;99.60;;;;;;4994130;28;20366;-86
2022/04/14 08:04:35;;;;;;;13.95;12.13;;;21.40;99.90;;;;;;5009502;28;20046;-86
2022/04/14 08:07:02;;;;;;;15.98;12.05;;;21.90;99.50;;;;;;4993875;28;20042;-86
2022/04/14 08:09:27;;;;;;;14.10;12.00;;;22.10;99.10;;;;;;5009847;28;20565;-86
2022/04/14 08:11:53;;;;;;;13.45;12.05;;;22.10;97.50;;;;;;4993729;28;20125;-86
2022/04/14 08:14:19;;;;;;;15.02;12.27;;;21.60;99.20;;;;;;4998970;28;20524;-86
2022/04/14 08:16:45;;;;;;;14.27;11.90;;;22.30;97.80;;;;;;4993249;28;20078;-87
2022/04/14 08:19:10;;;;;;;14.93;11.73;;;22.90;97.00;;;;;;4994684;28;20129;-87
2022/04/14 08:21:36;;;;;;;15.65;12.98;;;22.80;96.10;;;;;;4997190;28;20068;-87
2022/04/14 08:24:02;;;;;;;13.55;11.00;;;21.60;95.90;;;;;;5009963;28;20038;-86
2022/04/14 08:26:28;;;;;;;15.38;12.07;;;22.00;98.40;;;;;;5002363;28;20519;-87
2022/04/14 08:28:55;;;;;;;13.38;11.85;;;22.20;95.80;;;;;;4993518;28;20461;-87
2022/04/14 08:31:23;;;;;;;16.38;11.50;;;22.50;95.90;;;;;;4993171;28;20038;-87
2022/04/14 08:33:49;;;;;;;16.45;12.20;;;23.50;95.50;;;;;;4976517;28;20138;-87
2022/04/14 08:36:16;;;;;;;15.68;12.27;;;22.20;95.20;;;;;;4992637;28;20041;-87
2022/04/14 08:38:44;;;;;;;15.35;12.23;;;21.70;94.80;;;;;;5017301;28;20120;-87
2022/04/14 08:41:13;;;;;;;16.10;11.75;;;21.70;96.90;;;;;;4994850;28;20034;-87
2022/04/14 08:44:02;;;;;;;14.20;10.40;;;22.10;96.20;;;;;;4995617;28;20125;-87
2022/04/14 08:46:28;;;;;;;13.48;10.65;;;23.20;94.00;;;;;;4993802;28;20058;-88
2022/04/14 08:49:00;;;;;;;14.20;11.25;;;22.60;93.30;;;;;;4995317;28;20038;-89
2022/04/14 08:51:35;;;;;;;14.75;10.15;;;23.40;90.90;;;;;;4975379;28;20039;-88
2022/04/14 08:54:02;;;;;;;13.15;10.70;;;22.90;93.60;;;;;;4994026;28;20092;-89
2022/04/14 08:56:29;;;;;;;14.93;10.95;;;23.50;92.40;;;;;;4992967;28;20034;-89
2022/04/14 08:58:56;;;;;;;14.70;10.88;;;23.70;90.90;;;;;;4992204;28;20056;-89
2022/04/14 09:01:25;;;;;;;11.85;9.80;;;24.00;89.90;;;;;;5000668;28;20042;-89
2022/04/14 09:03:56;;;;;;;12.18;8.55;;;25.00;87.90;;;;;;4990969;28;20088;-84
2022/04/14 09:06:23;;;;;;;13.13;8.98;;;25.70;87.90;;;;;;4997169;28;20045;-85
2022/04/14 09:08:49;;;;;;;13.13;9.30;;;26.00;85.90;;;;;;4998379;28;20049;-85
2022/04/14 09:11:16;;;;;;;11.63;8.38;;;25.70;80.30;;;;;;5017915;28;20043;-85
2022/04/14 09:13:44;;;;;;;10.95;8.55;;;25.00;82.40;;;;;;4997303;28;20396;-85
2022/04/14 09:16:11;;;;;;;13.05;8.63;;;24.80;78.30;;;;;;4969468;28;20042;-85
2022/04/14 09:18:36;;;;;;;11.25;8.75;;;24.30;83.70;;;;;;4976372;28;20046;-89
2022/04/14 09:21:04;;;;;;;11.50;7.80;;;23.90;83.30;;;;;;4993182;28;20034;-88
2022/04/14 09:23:29;;;;;;;10.07;7.75;;;24.10;84.20;;;;;;4992880;28;20060;-89
2022/04/14 09:26:06;;;;;;;9.48;7.20;;;24.50;83.70;;;;;;4993169;28;20535;-89
2022/04/14 09:28:32;;;;;;;8.60;7.32;;;25.80;81.80;;;;;;4992473;28;20050;-89
2022/04/14 09:31:03;;;;;;;8.88;7.00;;;25.80;79.90;;;;;;5007874;28;20038;-89
2022/04/14 09:33:31;;;;;;;9.73;6.55;;;25.40;77.10;;;;;;4992383;28;20050;-89
2022/04/14 09:36:09;;;;;;;10.20;6.85;;;26.00;74.90;;;;;;4940316;28;20074;-87
2022/04/14 09:39:07;;;;;;;10.90;7.57;;;25.70;75.90;;;;;;4998414;28;20038;-87
2022/04/14 09:41:41;;;;;;;9.88;6.32;;;24.80;79.10;;;;;;4974775;28;20077;-87
2022/04/14 09:44:12;;;;;;;8.23;6.38;;;25.30;79.90;;;;;;4992127;28;20077;-89
2022/04/14 09:46:45;;;;;;;9.60;5.50;;;25.50;76.20;;;;;;4975861;28;20129;-89
2022/04/14 09:49:16;;;;;;;8.55;5.25;;;25.00;74.20;;;;;;4991897;28;20074;-88
2022/04/14 09:51:47;;;;;;;8.18;5.57;;;24.10;74.30;;;;;;4991938;28;20097;-87
2022/04/14 09:54:16;;;;;;;8.52;6.07;;;22.90;79.00;;;;;;4999716;28;20042;-88
2022/04/14 09:56:46;;;;;;;7.53;5.28;;;22.70;79.00;;;;;;4997514;28;20038;-88
2022/04/14 09:59:15;;;;;;;8.05;5.80;;;22.80;80.40;;;;;;4999500;28;20042;-87
2022/04/14 10:01:41;;;;;;;8.60;4.82;;;23.90;78.80;;;;;;4993260;28;20104;-88
2022/04/14 10:04:10;;;;;;;8.10;4.13;;;24.80;76.90;;;;;;4997906;28;20065;-88
2022/04/14 10:06:35;;;;;;;9.00;4.07;;;24.80;73.00;;;;;;4989891;28;20050;-87
2022/04/14 10:09:02;;;;;;;5.20;3.60;;;24.10;74.90;;;;;;4976614;28;20030;-87
2022/04/14 10:11:30;;;;;;;10.98;4.47;;;25.10;74.70;;;;;;4991591;28;20492;-87
2022/04/14 10:14:12;;;;;;;7.05;4.28;;;25.40;72.00;;;;;;4982627;28;20417;-88
2022/04/14 10:16:40;;;;;;;7.15;4.45;;;26.00;71.20;;;;;;5005354;28;20066;-89
2022/04/14 10:19:08;;;;;;;8.20;4.80;;;25.70;69.80;;;;;;4995754;28;20040;-88
2022/04/14 10:21:39;;;;;;;5.95;3.90;;;25.90;70.70;;;;;;4975634;28;20092;-88
2022/04/14 10:24:06;;;;;;;5.78;3.38;;;26.80;69.60;;;;;;4996832;28;20428;-88
2022/04/14 10:26:34;;;;;;;8.40;3.50;;;27.20;67.70;;;;;;4991260;28;20451;-88
2022/04/14 10:29:03;;;;;;;4.88;2.60;;;27.30;67.60;;;;;;4996316;28;20048;-89
2022/04/14 10:31:30;;;;;;;7.47;3.00;;;26.70;66.60;;;;;;5008917;28;20432;-88
2022/04/14 10:33:59;;;;;;;5.65;2.58;;;26.50;67.80;;;;;;4991445;28;20055;-88
2022/04/14 10:36:25;;;;;;;5.50;2.65;;;25.60;66.30;;;;;;4993963;28;20512;-88
2022/04/14 10:38:51;;;;;;;6.10;2.63;;;25.80;67.40;;;;;;4995075;28;20040;-88
2022/04/14 10:41:25;;;;;;;7.25;3.17;;;26.40;68.20;;;;;;4985256;28;20046;-88
2022/04/14 10:43:51;;;;;;;5.82;2.97;;;25.80;65.70;;;;;;4991351;28;20046;-89
2022/04/14 10:46:17;;;;;;;5.93;3.63;;;26.40;67.30;;;;;;4996218;28;20038;-88
2022/04/14 10:48:45;;;;;;;6.47;3.60;;;25.50;65.80;;;;;;4993437;28;20382;-88
2022/04/14 10:51:39;;;;;;;6.30;4.30;;;26.70;66.50;;;;;;4975118;28;20100;-88
2022/04/14 10:54:11;;;;;;;7.05;3.08;;;26.70;67.60;;;;;;4992831;28;20100;-88
2022/04/14 10:56:37;;;;;;;4.78;2.80;;;26.70;65.00;;;;;;5002087;28;20393;-89
2022/04/14 10:59:13;;;;;;;6.10;3.13;;;24.90;64.20;;;;;;4992529;28;20046;-84
2022/04/14 11:04:35;;;;;;;5.53;2.90;;;24.40;67.80;;;;;;4997685;28;20054;-85
2022/04/14 11:07:14;;;;;;;5.75;2.97;;;25.10;69.20;;;;;;5002465;28;20084;-85
2022/04/14 11:09:43;;;;;;;5.78;3.00;;;25.50;65.40;;;;;;4995564;28;20046;-84
2022/04/14 11:12:12;;;;;;;5.35;2.40;;;26.10;67.10;;;;;;4995738;28;20124;-84
2022/04/14 11:14:52;;;;;;;6.80;2.88;;;26.50;63.10;;;;;;4991597;28;20038;-85
2022/04/14 11:17:30;;;;;;;7.03;3.50;;;25.10;62.70;;;;;;4994659;28;20042;-85
2022/04/14 11:20:15;;;;;;;7.45;3.72;;;24.60;65.70;;;;;;4997463;28;20120;-84
2022/04/14 11:23:09;;;;;;;7.47;4.25;;;24.50;66.60;;;;;;4992483;28;20097;-84
2022/04/14 11:28:27;;;;;;;8.52;4.63;;;24.50;69.70;;;;;;4993188;28;20042;-84
2022/04/14 11:30:58;;;;;;;7.93;4.50;;;24.80;69.40;;;;;;4997604;28;20039;-84
2022/04/14 11:33:29;;;;;;;7.15;4.45;;;24.30;68.80;;;;;;4996548;28;20049;-84
2022/04/14 11:36:14;;;;;;;6.47;3.40;;;24.00;69.80;;;;;;4994732;28;20058;-84
2022/04/14 11:39:05;;;;;;;6.70;3.60;;;24.80;70.40;;;;;;4999823;28;20408;-84
2022/04/14 11:41:34;;;;;;;6.28;3.67;;;26.10;68.80;;;;;;4995642;28;20049;-84
2022/04/14 11:44:05;;;;;;;8.00;3.45;;;26.20;64.30;;;;;;4991788;28;20038;-84
2022/04/14 11:46:32;;;;;;;7.20;3.92;;;25.30;65.40;;;;;;4992827;28;20049;-84
2022/04/14 11:49:01;;;;;;;6.20;3.30;;;23.50;67.30;;;;;;4998574;28;20048;-84
2022/04/14 11:51:27;;;;;;;7.25;3.25;;;23.30;68.60;;;;;;5002038;28;20034;-84
2022/04/14 11:53:55;;;;;;;6.32;3.42;;;22.40;69.70;;;;;;4998334;28;20031;-84
2022/04/14 11:56:23;;;;;;;6.15;3.30;;;23.20;71.20;;;;;;4995475;28;20113;-84
2022/04/14 11:58:49;;;;;;;5.65;3.28;;;23.90;70.90;;;;;;5013399;28;20038;-84
2022/04/14 12:01:15;;;;;;;6.85;3.20;;;23.70;68.00;;;;;;4991161;28;20034;-84
2022/04/14 12:03:44;;;;;;;6.90;3.20;;;23.40;69.20;;;;;;4961557;28;20073;-84
2022/04/14 12:06:11;;;;;;;6.75;3.20;;;24.30;68.90;;;;;;4999376;28;20038;-84
2022/04/14 12:08:38;;;;;;;6.72;2.90;;;24.70;70.00;;;;;;4977493;28;20439;-84
2022/04/14 12:11:16;;;;;;;4.95;2.80;;;25.30;67.00;;;;;;4988427;28;20048;-84
2022/04/14 12:13:42;;;;;;;5.82;3.03;;;23.80;65.90;;;;;;4996360;28;20121;-84
2022/04/14 12:16:10;;;;;;;7.43;3.60;;;23.80;68.10;;;;;;5000078;28;20042;-84
2022/04/14 12:18:38;;;;;;;7.00;2.95;;;23.60;69.70;;;;;;4996062;28;20121;-84
2022/04/14 12:21:07;;;;;;;6.25;3.03;;;23.30;69.70;;;;;;4993459;28;20068;-84
2022/04/14 12:23:33;;;;;;;6.03;2.97;;;23.30;70.30;;;;;;4994338;28;20054;-91
2022/04/14 12:26:03;;;;;;;6.22;3.28;;;23.80;70.40;;;;;;4994080;28;20492;-91
2022/04/14 12:28:29;;;;;;;7.30;3.10;;;23.20;71.10;;;;;;4993943;28;20039;-90
2022/04/14 12:30:55;;;;;;;6.70;2.90;;;23.50;71.50;;;;;;4993842;28;20089;-91
2022/04/14 12:33:28;;;;;;;7.80;2.95;;;23.30;70.90;;;;;;4993624;28;20050;-90
2022/04/14 12:36:06;;;;;;;6.65;3.40;;;22.90;71.50;;;;;;4994249;28;20547;-91
2022/04/14 12:38:42;;;;;;;6.93;3.15;;;22.80;72.50;;;;;;4997868;28;20488;-84
2022/04/14 12:41:12;;;;;;;9.02;3.25;;;22.40;72.10;;;;;;4990839;28;20362;-84
2022/04/14 12:43:41;;;;;;;6.47;2.72;;;21.90;74.60;;;;;;4980018;28;20073;-84
2022/04/14 12:46:25;;;;;;;5.78;3.35;;;21.50;72.70;;;;;;4995605;28;20077;-84